Meteo Giornale » Osservazioni meteo Romania » Arad
ore: 21:00 - Osservazioni Meteo Arad
Lat. 46° 12' N Lon. 21° 24' E Alt. 117 metri s.l.m.
24 °C
Poco Nuvoloso
Temp. 24 Ore
19 °C
31 °C
Ovest/Nord-Ovest
9.3 Km/h
Dew point 8 °C
Umidità 35 %
Visibilità 10 Km
Il sole sorge alle ore 06:54
Il sole tramonta alle ore 20:13
| Data e Ora | Cielo e Fenomeni | T °C | DP °C | Um. % | Pres. hPa | Vis. km | Vento km/h | |
|---|---|---|---|---|---|---|---|---|
| Oggi h: 21:00 | Poco Nuvoloso | 24 | 8 | 35 | 1019 | 10 | O/NO 9.3 | |
| Oggi h: 20:30 | Sereno | 26 | 8 | 31 | 1018 | 10 | NO 13 | |
| Oggi h: 20:00 | Sereno | 27 | 8 | 30 | 1018 | 10 | NO 13 | |
| Oggi h: 19:30 | Sereno | 28 | 8 | 28 | 1018 | 10 | O/NO 18.5 | |
| Oggi h: 19:00 | Sereno | 30 | 8 | 25 | 1018 | 10 | NO 18.5 | |
| Oggi h: 18:30 | Sereno | 30 | 9 | 27 | 1018 | 10 | O/NO 24 | |
| Oggi h: 18:00 | Sereno | 30 | 9 | 27 | 1018 | 10 | NO 16.7 | |
| Oggi h: 17:30 | Sereno | 30 | 10 | 28 | 1017 | 10 | O/NO 14.8 | |
| Oggi h: 17:00 | Sereno | 31 | 9 | 25 | 1018 | 10 | N/NO 16.7 | |
| Oggi h: 16:30 | Sereno | 31 | 10 | 27 | 1018 | 10 | N/NO 16.7 | |
| Oggi h: 16:00 | Sereno | 30 | 10 | 28 | 1018 | 10 | NO 20.3 | |
| Oggi h: 15:30 | Sereno | 29 | 11 | 32 | 1018 | 10 | O/NO 14.8 | |
| Oggi h: 15:00 | Sereno | 30 | 12 | 33 | 1018 | 10 | O 14.8 | |
| Oggi h: 14:30 | Sereno | 30 | 12 | 33 | 1018 | 10 | O/NO 14.8 | |
| Oggi h: 14:00 | Sereno | 29 | 12 | 35 | 1018 | 10 | O/NO 20.3 | |
| Oggi h: 13:30 | Sereno | 29 | 13 | 37 | 1018 | 10 | NO 18.5 | |
| Oggi h: 13:00 | Poco Nuvoloso | 29 | 14 | 39 | 1018 | 10 | NO 14.8 | |
| Oggi h: 12:30 | Poco Nuvoloso | 27 | 14 | 44 | 1018 | 10 | O/NO 20.3 | |
| Oggi h: 12:00 | Poco Nuvoloso | 27 | 14 | 44 | 1018 | 10 | O/NO 18.5 | |
| Oggi h: 11:30 | Poco Nuvoloso | 27 | 15 | 47 | 1018 | 10 | O 22.2 | |
| Oggi h: 11:00 | Sereno | 26 | 15 | 50 | 1018 | 10 | O/NO 16.7 | |
| Oggi h: 10:30 | Sereno | 25 | 15 | 53 | 1018 | 10 | N 3.7 | |
| Oggi h: 10:00 | Sereno | 24 | 15 | 57 | 1018 | 10 | N 1.8 | |
| Oggi h: 09:30 | Sereno | 23 | 15 | 60 | 1018 | 10 | N 0 | |
| Oggi h: 09:00 | Poco Nuvoloso | 23 | 15 | 60 | 1018 | 10 | N 1.8 | |
| Oggi h: 08:30 | Poco Nuvoloso | 21 | 16 | 73 | 1017 | 10 | N/NE 7.4 | |
| Oggi h: 08:00 | Poco Nuvoloso | 20 | 16 | 77 | 1017 | 10 | E/SE 9.3 | |
| Oggi h: 07:30 | Poco Nuvoloso | 19 | 16 | 82 | 1017 | 10 | E 11.1 | |
| Oggi h: 07:00 | Poco Nuvoloso | 19 | 16 | 82 | 1017 | 10 | E 14.8 | |
| Oggi h: 06:30 | Pioggia | 20 | 16 | 77 | 1017 | 10 | E 13 | |
| Oggi h: 06:00 | Pioggia | 20 | 16 | 77 | 1017 | 10 | E 9.3 | |
| Oggi h: 05:30 | Coperto | 20 | 16 | 77 | 1017 | 10 | N 5.5 | |
| Oggi h: 05:00 | Coperto | 20 | 16 | 77 | 1016 | 10 | N/NO 25.9 | |
| Oggi h: 04:30 | Pioggia | 20 | 17 | 82 | 1015 | 10 | N/NO 40.7 | |
| Oggi h: 04:00 | Pioggia Temporale nelle vicinanze | 22 | 17 | 73 | 1015 | 10 | O/NO 42.6 | |
| Oggi h: 03:30 | Coperto | 27 | 14 | 44 | 1014 | 10 | O 38.8 | |
| Oggi h: 03:00 | Molto Nuvoloso | 25 | 14 | 50 | 1014 | 10 | SO 13 | |
| Oggi h: 02:30 | Molto Nuvoloso | 23 | 13 | 53 | 1013 | 10 | N 0 | |
| Oggi h: 02:00 | Nuvoloso | 23 | 14 | 56 | 1013 | 10 | N 5.5 | |
| Oggi h: 01:30 | Poco Nuvoloso | 24 | 14 | 53 | 1013 | 10 | N 5.5 | |
| Oggi h: 01:00 | Sereno | 26 | 13 | 44 | 1013 | 10 | N 3.7 | |
| Oggi h: 00:30 | Poco Nuvoloso | 27 | 13 | 42 | 1013 | 10 | N 5.5 | |
| Oggi h: 00:00 | Nuvoloso | 27 | 13 | 42 | 1013 | 10 | N 3.7 | |
| Ieri h: 23:30 | Molto Nuvoloso | 27 | 13 | 42 | 1013 | 10 | N 7.4 | |
| Ieri h: 23:00 | Molto Nuvoloso | 26 | 13 | 44 | 1013 | 10 | SE 7.4 | |
| Ieri h: 22:30 | Nuvoloso | 26 | 13 | 44 | 1012 | 10 | N 5.5 | |
| Ieri h: 22:00 | Sereno | 26 | 13 | 44 | 1012 | 10 | S 7.4 | |



